sensor_id;sensor_type;location;lat;lon;timestamp;P1;durP1;ratioP1;P2;durP2;ratioP2
3491;SDS011;1760;52.480;13.422;2023-06-26T00:01:55;11.80;;;9.90;;
3491;SDS011;1760;52.480;13.422;2023-06-26T00:04:23;9.73;;;8.23;;
3491;SDS011;1760;52.480;13.422;2023-06-26T00:06:50;9.63;;;8.07;;
3491;SDS011;1760;52.480;13.422;2023-06-26T00:09:17;13.93;;;9.10;;
3491;SDS011;1760;52.480;13.422;2023-06-26T00:11:44;12.10;;;8.37;;
3491;SDS011;1760;52.480;13.422;2023-06-26T00:14:11;10.53;;;8.30;;
3491;SDS011;1760;52.480;13.422;2023-06-26T00:16:38;14.53;;;9.57;;
3491;SDS011;1760;52.480;13.422;2023-06-26T00:19:05;10.63;;;9.43;;
3491;SDS011;1760;52.480;13.422;2023-06-26T00:21:34;12.70;;;10.30;;
3491;SDS011;1760;52.480;13.422;2023-06-26T00:24:01;14.70;;;8.33;;
3491;SDS011;1760;52.480;13.422;2023-06-26T00:26:28;12.90;;;9.00;;
3491;SDS011;1760;52.480;13.422;2023-06-26T00:28:55;10.90;;;9.23;;
3491;SDS011;1760;52.480;13.422;2023-06-26T00:31:22;11.80;;;9.20;;
3491;SDS011;1760;52.480;13.422;2023-06-26T00:33:49;13.30;;;11.90;;
3491;SDS011;1760;52.480;13.422;2023-06-26T00:36:16;15.83;;;10.50;;
3491;SDS011;1760;52.480;13.422;2023-06-26T00:38:45;12.17;;;10.87;;
3491;SDS011;1760;52.480;13.422;2023-06-26T00:41:12;12.93;;;10.47;;
3491;SDS011;1760;52.480;13.422;2023-06-26T00:43:39;12.20;;;10.30;;
3491;SDS011;1760;52.480;13.422;2023-06-26T00:46:06;13.57;;;10.40;;
3491;SDS011;1760;52.480;13.422;2023-06-26T00:48:36;12.20;;;10.33;;
3491;SDS011;1760;52.480;13.422;2023-06-26T00:51:03;13.17;;;10.53;;
3491;SDS011;1760;52.480;13.422;2023-06-26T00:53:30;12.03;;;10.80;;
3491;SDS011;1760;52.480;13.422;2023-06-26T00:55:59;14.20;;;9.40;;
3491;SDS011;1760;52.480;13.422;2023-06-26T00:58:27;11.73;;;10.00;;
3491;SDS011;1760;52.480;13.422;2023-06-26T01:00:54;15.33;;;10.77;;
3491;SDS011;1760;52.480;13.422;2023-06-26T01:03:21;15.30;;;10.50;;
3491;SDS011;1760;52.480;13.422;2023-06-26T01:05:50;13.30;;;9.90;;
3491;SDS011;1760;52.480;13.422;2023-06-26T01:08:18;12.17;;;10.00;;
3491;SDS011;1760;52.480;13.422;2023-06-26T01:10:46;12.20;;;10.80;;
3491;SDS011;1760;52.480;13.422;2023-06-26T01:13:15;15.47;;;9.67;;
3491;SDS011;1760;52.480;13.422;2023-06-26T01:15:43;13.00;;;10.30;;
3491;SDS011;1760;52.480;13.422;2023-06-26T01:18:11;11.27;;;10.07;;
3491;SDS011;1760;52.480;13.422;2023-06-26T01:20:40;14.23;;;9.80;;
3491;SDS011;1760;52.480;13.422;2023-06-26T01:23:13;19.30;;;12.53;;
3491;SDS011;1760;52.480;13.422;2023-06-26T01:25:50;11.93;;;10.63;;
3491;SDS011;1760;52.480;13.422;2023-06-26T01:28:28;15.13;;;9.67;;
3491;SDS011;1760;52.480;13.422;2023-06-26T01:30:56;11.43;;;9.47;;
3491;SDS011;1760;52.480;13.422;2023-06-26T01:33:25;14.30;;;10.90;;
3491;SDS011;1760;52.480;13.422;2023-06-26T01:35:53;11.77;;;10.57;;
3491;SDS011;1760;52.480;13.422;2023-06-26T01:38:21;14.20;;;11.23;;
3491;SDS011;1760;52.480;13.422;2023-06-26T01:40:48;14.00;;;11.40;;
3491;SDS011;1760;52.480;13.422;2023-06-26T01:43:17;13.20;;;10.70;;
3491;SDS011;1760;52.480;13.422;2023-06-26T01:45:52;12.43;;;10.80;;
3491;SDS011;1760;52.480;13.422;2023-06-26T01:48:23;14.87;;;11.50;;
3491;SDS011;1760;52.480;13.422;2023-06-26T01:50:54;19.50;;;10.03;;
3491;SDS011;1760;52.480;13.422;2023-06-26T01:53:24;14.80;;;10.57;;
3491;SDS011;1760;52.480;13.422;2023-06-26T01:55:59;12.87;;;10.20;;
3491;SDS011;1760;52.480;13.422;2023-06-26T01:58:32;14.83;;;11.17;;
3491;SDS011;1760;52.480;13.422;2023-06-26T02:01:02;12.17;;;10.80;;
3491;SDS011;1760;52.480;13.422;2023-06-26T02:03:29;17.03;;;11.30;;
3491;SDS011;1760;52.480;13.422;2023-06-26T02:05:56;14.90;;;11.17;;
3491;SDS011;1760;52.480;13.422;2023-06-26T02:08:23;11.77;;;10.57;;
3491;SDS011;1760;52.480;13.422;2023-06-26T02:10:51;13.70;;;11.23;;
3491;SDS011;1760;52.480;13.422;2023-06-26T02:13:21;13.00;;;11.27;;
3491;SDS011;1760;52.480;13.422;2023-06-26T02:15:48;13.07;;;10.93;;
3491;SDS011;1760;52.480;13.422;2023-06-26T02:18:16;12.27;;;10.50;;
3491;SDS011;1760;52.480;13.422;2023-06-26T02:20:43;17.30;;;11.53;;
3491;SDS011;1760;52.480;13.422;2023-06-26T02:23:10;12.17;;;10.00;;
3491;SDS011;1760;52.480;13.422;2023-06-26T02:25:37;12.20;;;10.53;;
3491;SDS011;1760;52.480;13.422;2023-06-26T02:28:05;13.70;;;11.50;;
3491;SDS011;1760;52.480;13.422;2023-06-26T02:30:32;13.73;;;11.67;;
3491;SDS011;1760;52.480;13.422;2023-06-26T02:33:00;13.07;;;11.40;;
3491;SDS011;1760;52.480;13.422;2023-06-26T02:35:28;13.47;;;10.00;;
3491;SDS011;1760;52.480;13.422;2023-06-26T02:37:59;17.63;;;11.47;;
3491;SDS011;1760;52.480;13.422;2023-06-26T02:40:26;16.00;;;11.60;;
3491;SDS011;1760;52.480;13.422;2023-06-26T02:42:53;17.87;;;12.43;;
3491;SDS011;1760;52.480;13.422;2023-06-26T02:45:20;14.07;;;12.00;;
3491;SDS011;1760;52.480;13.422;2023-06-26T02:47:47;14.30;;;11.17;;
3491;SDS011;1760;52.480;13.422;2023-06-26T02:50:14;15.10;;;11.20;;
3491;SDS011;1760;52.480;13.422;2023-06-26T02:52:42;14.93;;;11.10;;
3491;SDS011;1760;52.480;13.422;2023-06-26T02:55:16;16.80;;;12.90;;
3491;SDS011;1760;52.480;13.422;2023-06-26T02:57:43;13.00;;;11.40;;
3491;SDS011;1760;52.480;13.422;2023-06-26T03:00:13;13.73;;;11.70;;
3491;SDS011;1760;52.480;13.422;2023-06-26T03:02:41;14.63;;;13.13;;
3491;SDS011;1760;52.480;13.422;2023-06-26T03:05:08;12.87;;;11.20;;
3491;SDS011;1760;52.480;13.422;2023-06-26T03:07:36;11.43;;;10.33;;
3491;SDS011;1760;52.480;13.422;2023-06-26T03:10:05;14.30;;;12.80;;
3491;SDS011;1760;52.480;13.422;2023-06-26T03:12:33;17.17;;;12.80;;
3491;SDS011;1760;52.480;13.422;2023-06-26T03:15:00;15.33;;;11.93;;
3491;SDS011;1760;52.480;13.422;2023-06-26T03:17:30;12.40;;;11.00;;
3491;SDS011;1760;52.480;13.422;2023-06-26T03:19:57;19.73;;;13.40;;
3491;SDS011;1760;52.480;13.422;2023-06-26T03:22:24;14.60;;;12.30;;
3491;SDS011;1760;52.480;13.422;2023-06-26T03:24:53;17.33;;;12.83;;
3491;SDS011;1760;52.480;13.422;2023-06-26T03:27:34;15.43;;;12.80;;
3491;SDS011;1760;52.480;13.422;2023-06-26T03:30:01;15.77;;;12.90;;
3491;SDS011;1760;52.480;13.422;2023-06-26T03:32:28;16.53;;;14.23;;
3491;SDS011;1760;52.480;13.422;2023-06-26T03:34:55;21.57;;;13.40;;
3491;SDS011;1760;52.480;13.422;2023-06-26T03:37:22;15.70;;;12.97;;
3491;SDS011;1760;52.480;13.422;2023-06-26T03:39:50;20.13;;;15.50;;
3491;SDS011;1760;52.480;13.422;2023-06-26T03:42:18;15.37;;;13.77;;
3491;SDS011;1760;52.480;13.422;2023-06-26T03:44:47;18.77;;;13.33;;
3491;SDS011;1760;52.480;13.422;2023-06-26T03:47:14;15.10;;;13.60;;
3491;SDS011;1760;52.480;13.422;2023-06-26T03:49:41;17.80;;;14.30;;
3491;SDS011;1760;52.480;13.422;2023-06-26T03:52:08;20.20;;;15.23;;
3491;SDS011;1760;52.480;13.422;2023-06-26T03:54:35;18.20;;;14.20;;
3491;SDS011;1760;52.480;13.422;2023-06-26T03:57:02;18.53;;;14.90;;
3491;SDS011;1760;52.480;13.422;2023-06-26T03:59:29;22.80;;;14.83;;
3491;SDS011;1760;52.480;13.422;2023-06-26T04:02:00;21.00;;;16.07;;
3491;SDS011;1760;52.480;13.422;2023-06-26T04:04:28;22.50;;;16.10;;
3491;SDS011;1760;52.480;13.422;2023-06-26T04:06:55;21.37;;;15.50;;
3491;SDS011;1760;52.480;13.422;2023-06-26T04:09:24;20.60;;;13.20;;
3491;SDS011;1760;52.480;13.422;2023-06-26T04:11:51;15.10;;;13.37;;
3491;SDS011;1760;52.480;13.422;2023-06-26T04:14:18;18.20;;;14.07;;
3491;SDS011;1760;52.480;13.422;2023-06-26T04:16:45;19.73;;;16.00;;
3491;SDS011;1760;52.480;13.422;2023-06-26T04:19:13;18.80;;;13.83;;
3491;SDS011;1760;52.480;13.422;2023-06-26T04:21:40;17.30;;;14.27;;
3491;SDS011;1760;52.480;13.422;2023-06-26T04:24:07;18.80;;;13.43;;
3491;SDS011;1760;52.480;13.422;2023-06-26T04:26:37;15.13;;;12.83;;
3491;SDS011;1760;52.480;13.422;2023-06-26T04:29:06;16.60;;;13.10;;
3491;SDS011;1760;52.480;13.422;2023-06-26T04:31:32;15.43;;;13.47;;
3491;SDS011;1760;52.480;13.422;2023-06-26T04:34:00;14.57;;;12.00;;
3491;SDS011;1760;52.480;13.422;2023-06-26T04:36:28;17.37;;;13.03;;
3491;SDS011;1760;52.480;13.422;2023-06-26T04:38:56;11.97;;;10.77;;
3491;SDS011;1760;52.480;13.422;2023-06-26T04:41:26;16.30;;;13.20;;
3491;SDS011;1760;52.480;13.422;2023-06-26T04:43:53;17.50;;;14.33;;
3491;SDS011;1760;52.480;13.422;2023-06-26T04:46:20;16.33;;;12.93;;
3491;SDS011;1760;52.480;13.422;2023-06-26T04:48:47;15.17;;;13.57;;
3491;SDS011;1760;52.480;13.422;2023-06-26T04:51:14;19.30;;;14.47;;
3491;SDS011;1760;52.480;13.422;2023-06-26T04:53:47;20.40;;;14.40;;
3491;SDS011;1760;52.480;13.422;2023-06-26T04:56:18;14.93;;;13.47;;
3491;SDS011;1760;52.480;13.422;2023-06-26T04:58:45;13.87;;;12.40;;
3491;SDS011;1760;52.480;13.422;2023-06-26T05:01:12;14.63;;;12.43;;
3491;SDS011;1760;52.480;13.422;2023-06-26T05:03:40;13.83;;;12.00;;
3491;SDS011;1760;52.480;13.422;2023-06-26T05:06:08;15.30;;;13.80;;
3491;SDS011;1760;52.480;13.422;2023-06-26T05:08:35;18.30;;;13.70;;
3491;SDS011;1760;52.480;13.422;2023-06-26T05:11:03;15.97;;;13.73;;
3491;SDS011;1760;52.480;13.422;2023-06-26T05:13:30;14.33;;;12.47;;
3491;SDS011;1760;52.480;13.422;2023-06-26T05:15:57;15.67;;;12.20;;
3491;SDS011;1760;52.480;13.422;2023-06-26T05:18:25;15.50;;;13.10;;
3491;SDS011;1760;52.480;13.422;2023-06-26T05:20:52;16.50;;;12.73;;
3491;SDS011;1760;52.480;13.422;2023-06-26T05:23:19;22.60;;;13.87;;
3491;SDS011;1760;52.480;13.422;2023-06-26T05:25:47;14.57;;;12.90;;
3491;SDS011;1760;52.480;13.422;2023-06-26T05:28:16;14.90;;;13.30;;
3491;SDS011;1760;52.480;13.422;2023-06-26T05:30:44;16.73;;;11.60;;
3491;SDS011;1760;52.480;13.422;2023-06-26T05:33:12;11.57;;;10.37;;
3491;SDS011;1760;52.480;13.422;2023-06-26T05:35:42;11.73;;;10.10;;
3491;SDS011;1760;52.480;13.422;2023-06-26T05:38:12;9.93;;;8.87;;
3491;SDS011;1760;52.480;13.422;2023-06-26T05:40:40;10.33;;;9.33;;
3491;SDS011;1760;52.480;13.422;2023-06-26T05:43:08;12.50;;;10.40;;
3491;SDS011;1760;52.480;13.422;2023-06-26T05:45:38;12.53;;;10.27;;
3491;SDS011;1760;52.480;13.422;2023-06-26T05:48:06;10.83;;;9.73;;
3491;SDS011;1760;52.480;13.422;2023-06-26T05:50:33;13.70;;;9.93;;
3491;SDS011;1760;52.480;13.422;2023-06-26T05:53:01;11.63;;;10.40;;
3491;SDS011;1760;52.480;13.422;2023-06-26T05:55:29;11.20;;;9.93;;
3491;SDS011;1760;52.480;13.422;2023-06-26T05:57:56;11.93;;;10.53;;
3491;SDS011;1760;52.480;13.422;2023-06-26T06:00:25;12.33;;;11.13;;
3491;SDS011;1760;52.480;13.422;2023-06-26T06:02:54;12.23;;;10.97;;
3491;SDS011;1760;52.480;13.422;2023-06-26T06:05:21;11.80;;;10.30;;
3491;SDS011;1760;52.480;13.422;2023-06-26T06:07:49;10.10;;;8.00;;
3491;SDS011;1760;52.480;13.422;2023-06-26T06:10:17;8.83;;;7.93;;
3491;SDS011;1760;52.480;13.422;2023-06-26T06:12:44;10.03;;;8.80;;
3491;SDS011;1760;52.480;13.422;2023-06-26T06:15:11;10.10;;;8.77;;
3491;SDS011;1760;52.480;13.422;2023-06-26T06:17:38;9.70;;;8.70;;
3491;SDS011;1760;52.480;13.422;2023-06-26T06:20:07;11.13;;;9.07;;
3491;SDS011;1760;52.480;13.422;2023-06-26T06:22:35;10.50;;;8.53;;
3491;SDS011;1760;52.480;13.422;2023-06-26T06:25:02;11.13;;;9.17;;
3491;SDS011;1760;52.480;13.422;2023-06-26T06:27:29;11.67;;;8.33;;
3491;SDS011;1760;52.480;13.422;2023-06-26T06:29:57;13.93;;;8.20;;
3491;SDS011;1760;52.480;13.422;2023-06-26T06:32:23;8.70;;;7.80;;
3491;SDS011;1760;52.480;13.422;2023-06-26T06:34:51;9.87;;;8.13;;
3491;SDS011;1760;52.480;13.422;2023-06-26T06:37:19;12.33;;;8.37;;
3491;SDS011;1760;52.480;13.422;2023-06-26T06:39:46;10.73;;;8.97;;
3491;SDS011;1760;52.480;13.422;2023-06-26T06:42:12;9.37;;;7.27;;
3491;SDS011;1760;52.480;13.422;2023-06-26T06:44:39;11.97;;;8.90;;
3491;SDS011;1760;52.480;13.422;2023-06-26T06:47:06;9.43;;;8.13;;
3491;SDS011;1760;52.480;13.422;2023-06-26T06:49:33;9.10;;;7.40;;
3491;SDS011;1760;52.480;13.422;2023-06-26T06:52:00;7.93;;;6.87;;
3491;SDS011;1760;52.480;13.422;2023-06-26T06:54:28;8.27;;;7.30;;
3491;SDS011;1760;52.480;13.422;2023-06-26T06:56:55;9.50;;;7.37;;
3491;SDS011;1760;52.480;13.422;2023-06-26T06:59:22;8.27;;;7.50;;
3491;SDS011;1760;52.480;13.422;2023-06-26T07:01:49;6.63;;;6.00;;
3491;SDS011;1760;52.480;13.422;2023-06-26T07:04:16;7.97;;;7.10;;
3491;SDS011;1760;52.480;13.422;2023-06-26T07:06:43;8.87;;;7.50;;
3491;SDS011;1760;52.480;13.422;2023-06-26T07:09:10;8.63;;;7.73;;
3491;SDS011;1760;52.480;13.422;2023-06-26T07:11:38;9.37;;;7.60;;
3491;SDS011;1760;52.480;13.422;2023-06-26T07:14:05;9.63;;;6.80;;
3491;SDS011;1760;52.480;13.422;2023-06-26T07:16:32;9.60;;;7.00;;
3491;SDS011;1760;52.480;13.422;2023-06-26T07:19:01;8.70;;;7.17;;
3491;SDS011;1760;52.480;13.422;2023-06-26T07:21:28;7.60;;;6.20;;
3491;SDS011;1760;52.480;13.422;2023-06-26T07:23:55;7.43;;;6.60;;
3491;SDS011;1760;52.480;13.422;2023-06-26T07:26:24;7.30;;;6.60;;
3491;SDS011;1760;52.480;13.422;2023-06-26T07:28:53;6.07;;;5.47;;
3491;SDS011;1760;52.480;13.422;2023-06-26T07:31:21;7.00;;;6.30;;
3491;SDS011;1760;52.480;13.422;2023-06-26T07:33:48;7.93;;;5.27;;
3491;SDS011;1760;52.480;13.422;2023-06-26T07:36:16;7.23;;;6.00;;
3491;SDS011;1760;52.480;13.422;2023-06-26T07:38:43;7.27;;;6.30;;
3491;SDS011;1760;52.480;13.422;2023-06-26T07:41:09;6.33;;;5.73;;
3491;SDS011;1760;52.480;13.422;2023-06-26T07:43:36;8.03;;;5.87;;
3491;SDS011;1760;52.480;13.422;2023-06-26T07:46:04;6.73;;;6.13;;
3491;SDS011;1760;52.480;13.422;2023-06-26T07:48:32;6.40;;;5.90;;
3491;SDS011;1760;52.480;13.422;2023-06-26T07:50:58;6.47;;;5.87;;
3491;SDS011;1760;52.480;13.422;2023-06-26T07:53:25;8.30;;;6.03;;
3491;SDS011;1760;52.480;13.422;2023-06-26T07:55:52;6.13;;;5.43;;
3491;SDS011;1760;52.480;13.422;2023-06-26T07:58:20;5.73;;;4.83;;
3491;SDS011;1760;52.480;13.422;2023-06-26T08:00:47;5.10;;;4.70;;
3491;SDS011;1760;52.480;13.422;2023-06-26T08:03:15;5.30;;;4.80;;
3491;SDS011;1760;52.480;13.422;2023-06-26T08:05:42;7.00;;;5.50;;
3491;SDS011;1760;52.480;13.422;2023-06-26T08:08:11;9.90;;;5.00;;
3491;SDS011;1760;52.480;13.422;2023-06-26T08:10:44;5.00;;;4.50;;
3491;SDS011;1760;52.480;13.422;2023-06-26T08:13:14;6.00;;;5.37;;
3491;SDS011;1760;52.480;13.422;2023-06-26T08:15:41;8.00;;;7.20;;
3491;SDS011;1760;52.480;13.422;2023-06-26T08:18:09;5.50;;;5.00;;
3491;SDS011;1760;52.480;13.422;2023-06-26T08:20:37;5.43;;;4.93;;
3491;SDS011;1760;52.480;13.422;2023-06-26T08:23:04;6.20;;;4.27;;
3491;SDS011;1760;52.480;13.422;2023-06-26T08:25:31;6.20;;;4.90;;
3491;SDS011;1760;52.480;13.422;2023-06-26T08:27:59;5.23;;;4.40;;
3491;SDS011;1760;52.480;13.422;2023-06-26T08:30:26;5.40;;;4.90;;
3491;SDS011;1760;52.480;13.422;2023-06-26T08:32:53;6.00;;;4.63;;
3491;SDS011;1760;52.480;13.422;2023-06-26T08:35:21;5.20;;;4.70;;
3491;SDS011;1760;52.480;13.422;2023-06-26T08:37:49;10.50;;;4.27;;
3491;SDS011;1760;52.480;13.422;2023-06-26T08:40:17;5.57;;;4.80;;
3491;SDS011;1760;52.480;13.422;2023-06-26T08:42:44;4.07;;;3.67;;
3491;SDS011;1760;52.480;13.422;2023-06-26T08:45:11;6.30;;;4.30;;
3491;SDS011;1760;52.480;13.422;2023-06-26T08:47:39;5.40;;;4.37;;
3491;SDS011;1760;52.480;13.422;2023-06-26T08:50:08;4.63;;;4.23;;
3491;SDS011;1760;52.480;13.422;2023-06-26T08:52:37;4.50;;;4.10;;
3491;SDS011;1760;52.480;13.422;2023-06-26T08:55:10;3.30;;;3.00;;
3491;SDS011;1760;52.480;13.422;2023-06-26T08:57:39;3.70;;;3.40;;
3491;SDS011;1760;52.480;13.422;2023-06-26T09:00:07;8.87;;;4.43;;
3491;SDS011;1760;52.480;13.422;2023-06-26T09:02:35;4.50;;;4.10;;
3491;SDS011;1760;52.480;13.422;2023-06-26T09:05:02;5.23;;;4.70;;
3491;SDS011;1760;52.480;13.422;2023-06-26T09:07:29;3.77;;;3.47;;
3491;SDS011;1760;52.480;13.422;2023-06-26T09:09:59;4.60;;;4.13;;
3491;SDS011;1760;52.480;13.422;2023-06-26T09:12:28;4.60;;;4.20;;
3491;SDS011;1760;52.480;13.422;2023-06-26T09:14:55;6.00;;;4.07;;
3491;SDS011;1760;52.480;13.422;2023-06-26T09:17:24;5.53;;;4.17;;
3491;SDS011;1760;52.480;13.422;2023-06-26T09:19:51;4.83;;;3.90;;
3491;SDS011;1760;52.480;13.422;2023-06-26T09:22:18;7.73;;;5.20;;
3491;SDS011;1760;52.480;13.422;2023-06-26T09:24:47;4.93;;;4.53;;
3491;SDS011;1760;52.480;13.422;2023-06-26T09:27:16;6.10;;;4.50;;
3491;SDS011;1760;52.480;13.422;2023-06-26T09:29:46;4.80;;;4.10;;
3491;SDS011;1760;52.480;13.422;2023-06-26T09:32:13;5.80;;;4.00;;
3491;SDS011;1760;52.480;13.422;2023-06-26T09:34:41;5.33;;;4.77;;
3491;SDS011;1760;52.480;13.422;2023-06-26T09:37:11;6.20;;;5.60;;
3491;SDS011;1760;52.480;13.422;2023-06-26T09:39:38;4.93;;;4.53;;
3491;SDS011;1760;52.480;13.422;2023-06-26T09:42:05;5.10;;;4.33;;
3491;SDS011;1760;52.480;13.422;2023-06-26T09:44:32;4.70;;;4.30;;
3491;SDS011;1760;52.480;13.422;2023-06-26T09:47:02;4.30;;;4.00;;
3491;SDS011;1760;52.480;13.422;2023-06-26T09:49:29;5.47;;;4.97;;
3491;SDS011;1760;52.480;13.422;2023-06-26T09:51:57;5.07;;;4.67;;
3491;SDS011;1760;52.480;13.422;2023-06-26T09:54:27;4.67;;;4.27;;
3491;SDS011;1760;52.480;13.422;2023-06-26T09:56:55;4.10;;;3.80;;
3491;SDS011;1760;52.480;13.422;2023-06-26T09:59:32;5.03;;;4.30;;
3491;SDS011;1760;52.480;13.422;2023-06-26T10:02:02;4.40;;;4.00;;
3491;SDS011;1760;52.480;13.422;2023-06-26T10:04:29;4.47;;;4.07;;
3491;SDS011;1760;52.480;13.422;2023-06-26T10:06:56;4.90;;;4.40;;
3491;SDS011;1760;52.480;13.422;2023-06-26T10:09:27;6.00;;;4.70;;
3491;SDS011;1760;52.480;13.422;2023-06-26T10:11:55;9.13;;;4.30;;
3491;SDS011;1760;52.480;13.422;2023-06-26T10:14:25;5.27;;;4.13;;
3491;SDS011;1760;52.480;13.422;2023-06-26T10:16:55;11.03;;;5.53;;
3491;SDS011;1760;52.480;13.422;2023-06-26T10:19:25;4.70;;;4.30;;
3491;SDS011;1760;52.480;13.422;2023-06-26T10:21:54;4.60;;;4.20;;
3491;SDS011;1760;52.480;13.422;2023-06-26T10:24:23;5.63;;;4.63;;
3491;SDS011;1760;52.480;13.422;2023-06-26T10:26:52;4.80;;;4.30;;
3491;SDS011;1760;52.480;13.422;2023-06-26T10:29:30;4.13;;;3.70;;
3491;SDS011;1760;52.480;13.422;2023-06-26T10:31:58;3.80;;;3.47;;
3491;SDS011;1760;52.480;13.422;2023-06-26T10:34:27;4.07;;;3.50;;
3491;SDS011;1760;52.480;13.422;2023-06-26T10:37:00;3.90;;;3.43;;
3491;SDS011;1760;52.480;13.422;2023-06-26T10:39:32;3.63;;;3.33;;
3491;SDS011;1760;52.480;13.422;2023-06-26T10:42:13;4.20;;;3.80;;
3491;SDS011;1760;52.480;13.422;2023-06-26T10:44:41;5.90;;;4.37;;
3491;SDS011;1760;52.480;13.422;2023-06-26T10:47:09;5.77;;;4.80;;
3491;SDS011;1760;52.480;13.422;2023-06-26T10:49:37;12.63;;;4.53;;
3491;SDS011;1760;52.480;13.422;2023-06-26T10:52:07;7.83;;;3.63;;
3491;SDS011;1760;52.480;13.422;2023-06-26T10:54:34;4.53;;;4.13;;
3491;SDS011;1760;52.480;13.422;2023-06-26T10:57:03;3.90;;;3.47;;
3491;SDS011;1760;52.480;13.422;2023-06-26T10:59:33;3.80;;;3.40;;
3491;SDS011;1760;52.480;13.422;2023-06-26T11:02:00;5.17;;;4.40;;
3491;SDS011;1760;52.480;13.422;2023-06-26T11:04:39;6.03;;;4.07;;
3491;SDS011;1760;52.480;13.422;2023-06-26T11:07:16;4.90;;;4.37;;
3491;SDS011;1760;52.480;13.422;2023-06-26T11:09:54;4.40;;;3.77;;
3491;SDS011;1760;52.480;13.422;2023-06-26T11:12:34;4.90;;;4.10;;
3491;SDS011;1760;52.480;13.422;2023-06-26T11:15:02;4.50;;;4.10;;
3491;SDS011;1760;52.480;13.422;2023-06-26T11:17:29;5.53;;;3.87;;
3491;SDS011;1760;52.480;13.422;2023-06-26T11:19:58;5.60;;;4.93;;
3491;SDS011;1760;52.480;13.422;2023-06-26T11:22:25;4.93;;;3.90;;
3491;SDS011;1760;52.480;13.422;2023-06-26T11:24:53;4.27;;;3.70;;
3491;SDS011;1760;52.480;13.422;2023-06-26T11:27:20;6.57;;;4.40;;
3491;SDS011;1760;52.480;13.422;2023-06-26T11:29:51;6.87;;;4.50;;
3491;SDS011;1760;52.480;13.422;2023-06-26T11:32:18;4.50;;;4.10;;
3491;SDS011;1760;52.480;13.422;2023-06-26T11:34:45;4.97;;;4.30;;
3491;SDS011;1760;52.480;13.422;2023-06-26T11:37:17;5.30;;;4.33;;
3491;SDS011;1760;52.480;13.422;2023-06-26T11:39:45;4.87;;;4.07;;
3491;SDS011;1760;52.480;13.422;2023-06-26T11:42:12;6.77;;;5.00;;
3491;SDS011;1760;52.480;13.422;2023-06-26T11:44:40;5.43;;;4.27;;
3491;SDS011;1760;52.480;13.422;2023-06-26T11:47:12;4.73;;;4.27;;
3491;SDS011;1760;52.480;13.422;2023-06-26T11:49:41;6.17;;;4.20;;
3491;SDS011;1760;52.480;13.422;2023-06-26T11:52:08;4.60;;;3.80;;
3491;SDS011;1760;52.480;13.422;2023-06-26T11:54:37;5.00;;;4.60;;
3491;SDS011;1760;52.480;13.422;2023-06-26T11:57:06;5.10;;;4.60;;
3491;SDS011;1760;52.480;13.422;2023-06-26T11:59:34;4.57;;;4.00;;
3491;SDS011;1760;52.480;13.422;2023-06-26T12:02:04;4.67;;;4.20;;
3491;SDS011;1760;52.480;13.422;2023-06-26T12:04:32;6.50;;;4.60;;
3491;SDS011;1760;52.480;13.422;2023-06-26T12:07:00;4.57;;;4.17;;
3491;SDS011;1760;52.480;13.422;2023-06-26T12:09:30;5.30;;;4.43;;
3491;SDS011;1760;52.480;13.422;2023-06-26T12:12:00;5.07;;;4.57;;
3491;SDS011;1760;52.480;13.422;2023-06-26T12:14:28;4.30;;;3.87;;
3491;SDS011;1760;52.480;13.422;2023-06-26T12:17:03;4.43;;;4.03;;
3491;SDS011;1760;52.480;13.422;2023-06-26T12:19:31;4.57;;;4.03;;
3491;SDS011;1760;52.480;13.422;2023-06-26T12:21:58;4.77;;;4.20;;
3491;SDS011;1760;52.480;13.422;2023-06-26T12:24:25;6.10;;;4.30;;
3491;SDS011;1760;52.480;13.422;2023-06-26T12:26:53;7.60;;;4.83;;
3491;SDS011;1760;52.480;13.422;2023-06-26T12:29:28;4.30;;;4.00;;
3491;SDS011;1760;52.480;13.422;2023-06-26T12:31:58;6.53;;;4.80;;
3491;SDS011;1760;52.480;13.422;2023-06-26T12:34:27;5.17;;;4.70;;
3491;SDS011;1760;52.480;13.422;2023-06-26T12:36:58;4.80;;;4.20;;
3491;SDS011;1760;52.480;13.422;2023-06-26T12:39:26;6.87;;;4.70;;
3491;SDS011;1760;52.480;13.422;2023-06-26T12:41:54;11.80;;;9.27;;
3491;SDS011;1760;52.480;13.422;2023-06-26T12:44:26;8.23;;;6.87;;
3491;SDS011;1760;52.480;13.422;2023-06-26T12:46:56;6.10;;;5.20;;
3491;SDS011;1760;52.480;13.422;2023-06-26T12:49:30;6.70;;;5.43;;
3491;SDS011;1760;52.480;13.422;2023-06-26T12:51:58;5.10;;;4.60;;
3491;SDS011;1760;52.480;13.422;2023-06-26T12:54:26;8.70;;;5.33;;
3491;SDS011;1760;52.480;13.422;2023-06-26T12:56:53;7.73;;;5.63;;
3491;SDS011;1760;52.480;13.422;2023-06-26T12:59:20;6.40;;;4.80;;
3491;SDS011;1760;52.480;13.422;2023-06-26T13:01:49;5.50;;;4.63;;
3491;SDS011;1760;52.480;13.422;2023-06-26T13:04:16;6.17;;;5.47;;
3491;SDS011;1760;52.480;13.422;2023-06-26T13:06:43;6.20;;;5.60;;
3491;SDS011;1760;52.480;13.422;2023-06-26T13:09:10;8.63;;;4.87;;
3491;SDS011;1760;52.480;13.422;2023-06-26T13:11:37;6.00;;;5.40;;
3491;SDS011;1760;52.480;13.422;2023-06-26T13:14:05;5.40;;;4.90;;
3491;SDS011;1760;52.480;13.422;2023-06-26T13:16:33;6.10;;;5.50;;
3491;SDS011;1760;52.480;13.422;2023-06-26T13:19:02;8.07;;;5.00;;
3491;SDS011;1760;52.480;13.422;2023-06-26T13:21:29;7.10;;;6.17;;
3491;SDS011;1760;52.480;13.422;2023-06-26T13:23:56;6.30;;;4.83;;
3491;SDS011;1760;52.480;13.422;2023-06-26T13:26:24;6.27;;;5.57;;
3491;SDS011;1760;52.480;13.422;2023-06-26T13:28:51;6.70;;;5.27;;
3491;SDS011;1760;52.480;13.422;2023-06-26T13:31:18;5.67;;;5.17;;
3491;SDS011;1760;52.480;13.422;2023-06-26T13:33:45;6.53;;;5.60;;
3491;SDS011;1760;52.480;13.422;2023-06-26T13:36:15;6.57;;;5.57;;
3491;SDS011;1760;52.480;13.422;2023-06-26T13:38:43;6.77;;;5.23;;
3491;SDS011;1760;52.480;13.422;2023-06-26T13:41:10;5.90;;;5.37;;
3491;SDS011;1760;52.480;13.422;2023-06-26T13:43:37;6.87;;;6.10;;
3491;SDS011;1760;52.480;13.422;2023-06-26T13:46:04;6.40;;;5.27;;
3491;SDS011;1760;52.480;13.422;2023-06-26T13:48:31;5.97;;;5.37;;
3491;SDS011;1760;52.480;13.422;2023-06-26T13:50:58;6.37;;;5.73;;
3491;SDS011;1760;52.480;13.422;2023-06-26T13:53:27;5.43;;;4.90;;
3491;SDS011;1760;52.480;13.422;2023-06-26T13:55:54;10.87;;;5.40;;
3491;SDS011;1760;52.480;13.422;2023-06-26T13:58:20;6.80;;;5.90;;
3491;SDS011;1760;52.480;13.422;2023-06-26T14:00:51;8.73;;;6.67;;
3491;SDS011;1760;52.480;13.422;2023-06-26T14:03:19;6.03;;;5.33;;
3491;SDS011;1760;52.480;13.422;2023-06-26T14:05:46;7.40;;;5.97;;
3491;SDS011;1760;52.480;13.422;2023-06-26T14:08:13;6.93;;;6.33;;
3491;SDS011;1760;52.480;13.422;2023-06-26T14:10:41;6.70;;;5.57;;
3491;SDS011;1760;52.480;13.422;2023-06-26T14:13:09;10.77;;;7.80;;
3491;SDS011;1760;52.480;13.422;2023-06-26T14:15:36;6.67;;;5.77;;
3491;SDS011;1760;52.480;13.422;2023-06-26T14:18:06;8.17;;;5.27;;
3491;SDS011;1760;52.480;13.422;2023-06-26T14:20:33;5.47;;;4.93;;
3491;SDS011;1760;52.480;13.422;2023-06-26T14:23:01;5.30;;;4.80;;
3491;SDS011;1760;52.480;13.422;2023-06-26T14:25:28;4.73;;;3.97;;
3491;SDS011;1760;52.480;13.422;2023-06-26T14:27:57;6.47;;;3.83;;
3491;SDS011;1760;52.480;13.422;2023-06-26T14:30:24;10.53;;;5.23;;
3491;SDS011;1760;52.480;13.422;2023-06-26T14:32:51;5.40;;;4.43;;
3491;SDS011;1760;52.480;13.422;2023-06-26T14:35:19;4.57;;;2.83;;
3491;SDS011;1760;52.480;13.422;2023-06-26T14:37:47;8.93;;;3.60;;
3491;SDS011;1760;52.480;13.422;2023-06-26T14:40:14;2.97;;;2.60;;
3491;SDS011;1760;52.480;13.422;2023-06-26T14:42:42;3.90;;;2.90;;
3491;SDS011;1760;52.480;13.422;2023-06-26T14:45:12;7.80;;;4.57;;
3491;SDS011;1760;52.480;13.422;2023-06-26T14:47:38;6.50;;;4.13;;
3491;SDS011;1760;52.480;13.422;2023-06-26T14:50:06;6.57;;;4.60;;
3491;SDS011;1760;52.480;13.422;2023-06-26T14:52:34;6.57;;;4.50;;
3491;SDS011;1760;52.480;13.422;2023-06-26T14:55:01;7.53;;;4.73;;
3491;SDS011;1760;52.480;13.422;2023-06-26T14:57:28;5.97;;;4.50;;